createdAt,value
2023-05-21T00:00:17.987Z,1.70
2023-05-21T00:02:46.049Z,1.67
2023-05-21T00:05:17.154Z,5.90
2023-05-21T00:07:45.897Z,0.52
2023-05-21T00:10:14.161Z,5.43
2023-05-21T00:12:42.667Z,1.92
2023-05-21T00:15:11.895Z,4.18
2023-05-21T00:17:40.220Z,1.73
2023-05-21T00:20:10.107Z,1.70
2023-05-21T00:22:40.436Z,1.70
2023-05-21T00:25:09.060Z,2.50
2023-05-21T00:27:37.152Z,1.55
2023-05-21T00:30:05.792Z,1.92
2023-05-21T00:32:33.888Z,2.35
2023-05-21T00:35:01.877Z,2.25
2023-05-21T00:37:34.381Z,1.67
2023-05-21T00:40:04.888Z,1.73
2023-05-21T00:42:33.832Z,1.40
2023-05-21T00:45:03.741Z,1.90
2023-05-21T00:47:32.003Z,1.33
2023-05-21T00:50:00.487Z,1.85
2023-05-21T00:52:28.677Z,2.92
2023-05-21T00:54:56.852Z,2.83
2023-05-21T00:57:28.161Z,2.17
2023-05-21T00:59:56.382Z,1.58
2023-05-21T01:02:26.214Z,1.83
2023-05-21T01:04:56.381Z,3.72
2023-05-21T01:07:24.390Z,1.13
2023-05-21T01:09:54.208Z,2.25
2023-05-21T01:12:23.844Z,6.80
2023-05-21T01:14:54.317Z,1.15
2023-05-21T01:17:24.467Z,2.33
2023-05-21T01:19:54.727Z,2.47
2023-05-21T01:22:25.127Z,1.38
2023-05-21T01:24:55.685Z,1.92
2023-05-21T01:27:23.792Z,0.93
2023-05-21T01:29:51.913Z,1.88
2023-05-21T01:32:28.111Z,0.93
2023-05-21T01:35:01.912Z,1.58
2023-05-21T01:37:34.607Z,1.70
2023-05-21T01:40:09.865Z,2.38
2023-05-21T01:42:40.056Z,0.88
2023-05-21T01:45:09.591Z,1.50
2023-05-21T01:47:38.695Z,3.58
2023-05-21T01:50:07.828Z,1.10
2023-05-21T01:52:35.906Z,1.85
2023-05-21T01:55:05.819Z,1.02
2023-05-21T01:57:33.819Z,3.72
2023-05-21T02:00:02.112Z,4.47
2023-05-21T02:02:30.248Z,2.70
2023-05-21T02:04:58.282Z,0.57
2023-05-21T02:07:28.991Z,2.75
2023-05-21T02:09:57.096Z,1.60
2023-05-21T02:12:28.317Z,3.20
2023-05-21T02:14:58.501Z,3.17
2023-05-21T02:17:26.521Z,0.70
2023-05-21T02:19:54.550Z,2.30
2023-05-21T02:22:22.592Z,1.90
2023-05-21T02:24:50.580Z,1.33
2023-05-21T02:27:19.061Z,2.97
2023-05-21T02:29:48.412Z,1.42
2023-05-21T02:32:16.945Z,2.90
2023-05-21T02:34:47.351Z,2.83
2023-05-21T02:37:15.524Z,2.05
2023-05-21T02:39:43.490Z,1.98
2023-05-21T02:42:11.437Z,1.10
2023-05-21T02:44:39.430Z,1.55
2023-05-21T02:47:10.383Z,2.95
2023-05-21T02:49:38.379Z,1.17
2023-05-21T02:52:06.906Z,3.90
2023-05-21T02:54:34.919Z,3.25
2023-05-21T02:57:02.916Z,2.05
2023-05-21T02:59:30.932Z,1.65
2023-05-21T03:01:58.981Z,2.33
2023-05-21T03:04:29.127Z,2.38
2023-05-21T03:06:58.646Z,2.20
2023-05-21T03:09:26.632Z,1.08
2023-05-21T03:11:54.758Z,1.45
2023-05-21T03:14:23.103Z,3.05
2023-05-21T03:16:51.502Z,0.77
2023-05-21T03:19:20.914Z,2.60
2023-05-21T03:21:50.716Z,2.03
2023-05-21T03:24:18.764Z,1.63
2023-05-21T03:26:48.276Z,2.78
2023-05-21T03:29:16.410Z,2.42
2023-05-21T03:31:44.503Z,1.80
2023-05-21T03:34:12.519Z,8.02
2023-05-21T03:36:40.859Z,2.15
2023-05-21T03:39:10.168Z,4.07
2023-05-21T03:41:38.262Z,7.53
2023-05-21T03:44:06.567Z,1.80
2023-05-21T03:46:34.728Z,0.73
2023-05-21T03:49:02.772Z,0.90
2023-05-21T03:51:31.786Z,1.65
2023-05-21T03:54:00.212Z,6.03
2023-05-21T03:56:29.664Z,1.77
2023-05-21T03:58:57.627Z,1.33
2023-05-21T04:01:25.617Z,1.73
2023-05-21T04:03:53.733Z,1.33
2023-05-21T04:06:22.033Z,2.20
2023-05-21T04:08:50.091Z,1.40
2023-05-21T04:11:18.126Z,1.17
2023-05-21T04:13:48.306Z,4.95
2023-05-21T04:16:19.288Z,2.40
2023-05-21T04:18:48.025Z,1.30
2023-05-21T04:21:16.398Z,7.75
2023-05-21T04:23:44.365Z,1.95
2023-05-21T04:26:12.806Z,1.52
2023-05-21T04:28:42.105Z,1.73
2023-05-21T04:31:13.101Z,2.00
2023-05-21T04:33:42.291Z,3.55
2023-05-21T04:36:11.514Z,2.38
2023-05-21T04:38:41.986Z,2.45
2023-05-21T04:41:10.928Z,1.13
2023-05-21T04:43:39.050Z,2.28
2023-05-21T04:46:07.243Z,1.67
2023-05-21T04:48:36.574Z,2.45
2023-05-21T04:51:05.919Z,2.30
2023-05-21T04:53:35.872Z,1.55
2023-05-21T04:56:03.984Z,2.70
2023-05-21T04:58:32.963Z,1.67
2023-05-21T05:01:03.164Z,1.55
2023-05-21T05:03:31.575Z,2.47
2023-05-21T05:06:01.490Z,2.38
2023-05-21T05:08:29.480Z,2.08
2023-05-21T05:10:57.572Z,1.88
2023-05-21T05:13:26.181Z,3.33
2023-05-21T05:15:54.781Z,2.97
2023-05-21T05:18:22.943Z,2.92
2023-05-21T05:20:50.928Z,7.00
2023-05-21T05:23:20.561Z,3.63
2023-05-21T05:25:48.787Z,2.53
2023-05-21T05:28:16.793Z,3.28
2023-05-21T05:30:44.938Z,2.85
2023-05-21T05:33:13.697Z,2.75
2023-05-21T05:35:41.673Z,2.28
2023-05-21T05:38:09.995Z,3.22
2023-05-21T05:40:39.367Z,2.30
2023-05-21T05:43:07.957Z,2.50
2023-05-21T05:45:36.176Z,2.00
2023-05-21T05:48:04.599Z,1.83
2023-05-21T05:50:32.688Z,2.17
2023-05-21T05:53:00.727Z,1.25
2023-05-21T05:55:28.726Z,2.83
2023-05-21T05:57:58.053Z,2.83
2023-05-21T06:00:26.302Z,1.67
2023-05-21T06:02:54.351Z,3.47
2023-05-21T06:05:22.613Z,2.88
2023-05-21T06:07:50.683Z,4.10
2023-05-21T06:10:18.848Z,2.67
2023-05-21T06:12:46.852Z,2.33
2023-05-21T06:15:16.653Z,2.67
2023-05-21T06:17:44.707Z,3.78
2023-05-21T06:20:13.155Z,2.20
2023-05-21T06:22:41.162Z,3.63
2023-05-21T06:25:10.714Z,1.83
2023-05-21T06:27:38.971Z,3.60
2023-05-21T06:30:08.539Z,5.18
2023-05-21T06:32:38.107Z,3.20
2023-05-21T06:35:07.153Z,1.92
2023-05-21T06:37:35.117Z,2.33
2023-05-21T06:40:03.835Z,2.00
2023-05-21T06:42:31.807Z,2.05
2023-05-21T06:45:00.028Z,2.25
2023-05-21T06:47:28.154Z,3.38
2023-05-21T06:49:57.564Z,2.65
2023-05-21T06:52:26.682Z,1.77
2023-05-21T06:54:54.809Z,4.88
2023-05-21T06:57:22.780Z,2.72
2023-05-21T06:59:50.763Z,2.78
2023-05-21T07:02:18.816Z,4.60
2023-05-21T07:04:46.836Z,3.67
2023-05-21T07:07:16.257Z,4.65
2023-05-21T07:09:44.245Z,3.45
2023-05-21T07:12:12.227Z,4.90
2023-05-21T07:14:40.275Z,4.72
2023-05-21T07:17:08.309Z,6.35
2023-05-21T07:19:37.029Z,5.40
2023-05-21T07:22:06.147Z,4.97
2023-05-21T07:24:35.544Z,5.57
2023-05-21T07:27:11.335Z,5.75
2023-05-21T07:29:46.485Z,5.63
2023-05-21T07:32:14.561Z,4.75
2023-05-21T07:34:42.548Z,5.57
2023-05-21T07:37:10.713Z,5.05
2023-05-21T07:39:40.082Z,3.97
2023-05-21T07:42:08.059Z,5.63
2023-05-21T07:44:36.031Z,4.65
2023-05-21T07:47:04.236Z,2.35
2023-05-21T07:49:32.332Z,2.90
2023-05-21T07:52:00.399Z,2.78
2023-05-21T07:54:29.359Z,3.55
2023-05-21T07:56:58.778Z,5.38
2023-05-21T07:59:26.780Z,4.05
2023-05-21T08:01:54.808Z,5.30
2023-05-21T08:04:23.050Z,27.13
2023-05-21T08:06:51.200Z,34.22
2023-05-21T08:09:19.417Z,5.25
2023-05-21T08:11:47.597Z,5.80
2023-05-21T08:14:17.571Z,53.80
2023-05-21T08:16:46.333Z,6.28
2023-05-21T08:19:14.619Z,89.78
2023-05-21T08:21:42.625Z,12.52
2023-05-21T08:24:10.733Z,13.55
2023-05-21T08:26:38.739Z,15.13
2023-05-21T08:29:06.951Z,16.00
2023-05-21T08:31:36.520Z,15.80
2023-05-21T08:34:04.637Z,17.85
2023-05-21T08:36:33.009Z,18.17
2023-05-21T08:39:01.200Z,17.00
2023-05-21T08:41:32.026Z,15.48
2023-05-21T08:44:03.399Z,17.08
2023-05-21T08:46:34.862Z,17.92
2023-05-21T08:49:04.874Z,18.25
2023-05-21T08:51:33.011Z,18.50
2023-05-21T08:54:02.686Z,17.63
2023-05-21T08:56:33.250Z,19.63
2023-05-21T08:59:01.360Z,21.25
2023-05-21T09:01:29.752Z,11.80
2023-05-21T09:04:05.033Z,10.25
2023-05-21T09:06:38.493Z,12.30
2023-05-21T09:09:15.894Z,12.30
2023-05-21T09:11:43.888Z,13.75
2023-05-21T09:14:13.077Z,15.32
2023-05-21T09:16:41.524Z,16.50
2023-05-21T09:19:09.590Z,21.60
2023-05-21T09:21:40.888Z,26.08
2023-05-21T09:24:11.174Z,27.95
2023-05-21T09:26:41.994Z,29.30
2023-05-21T09:29:09.973Z,30.23
2023-05-21T09:31:38.108Z,30.90
2023-05-21T09:34:06.105Z,34.28
2023-05-21T09:36:34.714Z,36.75
2023-05-21T09:39:04.960Z,34.42
2023-05-21T09:41:33.628Z,35.78
2023-05-21T09:44:02.434Z,38.83
2023-05-21T09:46:39.500Z,166.10
2023-05-21T09:49:07.825Z,163.98
2023-05-21T09:51:40.149Z,181.43
2023-05-21T09:54:12.553Z,170.10
2023-05-21T09:56:41.271Z,186.93
2023-05-21T09:59:09.268Z,105.28
2023-05-21T10:01:38.838Z,107.93
2023-05-21T10:04:09.132Z,105.57
2023-05-21T10:06:43.137Z,105.88
2023-05-21T10:09:13.250Z,78.03
2023-05-21T10:11:43.974Z,82.45
2023-05-21T10:14:17.953Z,88.03
2023-05-21T10:16:50.417Z,86.45
2023-05-21T10:19:18.783Z,88.70
2023-05-21T10:21:47.363Z,88.88
2023-05-21T10:24:18.015Z,91.20
2023-05-21T10:26:47.120Z,89.53
2023-05-21T10:29:19.446Z,90.00
2023-05-21T10:31:49.851Z,90.57
2023-05-21T10:34:18.620Z,89.63
2023-05-21T10:36:50.052Z,91.57
2023-05-21T10:39:22.297Z,80.72
2023-05-21T10:41:59.205Z,88.22
2023-05-21T10:44:38.155Z,89.18
2023-05-21T10:47:35.864Z,82.78
2023-05-21T10:50:22.924Z,87.82
2023-05-21T10:53:03.157Z,87.68
2023-05-21T10:55:44.043Z,84.20
2023-05-21T10:58:32.298Z,86.70
2023-05-21T11:01:02.587Z,86.82
2023-05-21T11:03:32.080Z,86.13
2023-05-21T11:06:05.418Z,87.68
2023-05-21T11:08:36.226Z,88.72
2023-05-21T11:11:06.190Z,90.13
2023-05-21T11:13:48.833Z,90.72
2023-05-21T11:16:17.436Z,92.30
2023-05-21T11:19:02.230Z,92.88
2023-05-21T11:21:31.751Z,93.07
2023-05-21T11:24:08.424Z,92.60
2023-05-21T11:27:06.833Z,85.30
2023-05-21T11:29:41.339Z,74.70
2023-05-21T11:32:10.650Z,69.38
2023-05-21T11:34:40.431Z,77.47
2023-05-21T11:37:30.646Z,78.70
2023-05-21T11:40:16.849Z,76.22
2023-05-21T11:42:50.839Z,76.65
2023-05-21T11:45:20.252Z,93.45
2023-05-21T11:47:49.297Z,90.50
2023-05-21T11:50:17.810Z,86.13
2023-05-21T11:52:46.259Z,78.43
2023-05-21T11:55:15.717Z,79.60
2023-05-21T11:57:45.310Z,75.10
2023-05-21T12:00:19.155Z,72.95
2023-05-21T12:02:48.940Z,78.57
2023-05-21T12:05:17.173Z,77.88
2023-05-21T12:07:50.110Z,78.03
2023-05-21T12:10:21.548Z,75.78
2023-05-21T12:12:55.882Z,75.57
2023-05-21T12:15:27.594Z,76.75
2023-05-21T12:17:56.892Z,88.30
2023-05-21T12:20:28.281Z,76.55
2023-05-21T12:22:58.945Z,76.57
2023-05-21T12:25:27.422Z,78.28
2023-05-21T12:27:58.323Z,78.47
2023-05-21T12:30:28.112Z,78.22
2023-05-21T12:33:00.563Z,74.70
2023-05-21T12:35:28.735Z,75.30
2023-05-21T12:37:56.865Z,73.70
2023-05-21T12:40:37.209Z,68.90
2023-05-21T12:43:06.281Z,78.10
2023-05-21T12:45:37.153Z,66.82
2023-05-21T12:48:05.565Z,67.75
2023-05-21T12:50:35.841Z,70.03
2023-05-21T12:53:04.185Z,69.53
2023-05-21T12:55:32.987Z,70.95
2023-05-21T12:58:05.540Z,85.55
2023-05-21T13:00:35.619Z,89.88
2023-05-21T13:03:06.594Z,78.10
2023-05-21T13:05:35.140Z,79.05
2023-05-21T13:08:05.181Z,77.20
2023-05-21T13:10:33.276Z,73.75
2023-05-21T13:13:01.817Z,70.70
2023-05-21T13:15:29.861Z,70.45
2023-05-21T13:18:01.377Z,67.78
2023-05-21T13:20:29.894Z,65.38
2023-05-21T13:22:57.957Z,70.53
2023-05-21T13:25:28.986Z,69.50
2023-05-21T13:27:58.478Z,68.72
2023-05-21T13:30:26.608Z,71.70
2023-05-21T13:32:55.066Z,70.43
2023-05-21T13:35:24.612Z,70.68
2023-05-21T13:37:52.596Z,72.55
2023-05-21T13:40:20.782Z,72.97
2023-05-21T13:42:50.226Z,72.72
2023-05-21T13:45:21.304Z,72.53
2023-05-21T13:47:49.459Z,74.82
2023-05-21T13:50:17.813Z,76.78
2023-05-21T13:52:47.352Z,77.03
2023-05-21T13:55:16.784Z,76.43
2023-05-21T13:57:45.952Z,78.85
2023-05-21T14:00:16.098Z,82.97
2023-05-21T14:02:44.947Z,83.82
2023-05-21T14:05:13.637Z,80.90
2023-05-21T14:07:42.104Z,83.15
2023-05-21T14:10:12.345Z,81.45
2023-05-21T14:12:40.737Z,83.38
2023-05-21T14:15:09.878Z,79.55
2023-05-21T14:17:40.223Z,75.25
2023-05-21T14:20:09.827Z,74.03
2023-05-21T14:22:38.476Z,75.90
2023-05-21T14:25:07.258Z,75.75
2023-05-21T14:27:38.412Z,76.32
2023-05-21T14:30:07.673Z,78.45
2023-05-21T14:32:35.799Z,90.18
2023-05-21T14:35:04.954Z,92.88
2023-05-21T14:37:33.053Z,92.88
2023-05-21T14:40:01.115Z,92.55
2023-05-21T14:42:29.112Z,96.70
2023-05-21T14:44:58.911Z,92.80
2023-05-21T14:47:27.146Z,93.35
2023-05-21T14:49:55.184Z,93.60
2023-05-21T14:52:23.178Z,90.53
2023-05-21T14:54:51.171Z,89.57
2023-05-21T14:57:19.242Z,90.47
2023-05-21T14:59:47.244Z,84.82
2023-05-21T15:02:16.574Z,20.23
2023-05-21T15:04:44.758Z,22.20
2023-05-21T15:07:12.762Z,21.50
2023-05-21T15:09:40.713Z,21.48
2023-05-21T15:12:08.937Z,22.13
2023-05-21T15:14:36.901Z,21.27
2023-05-21T15:17:05.141Z,21.10
2023-05-21T15:19:34.524Z,21.08
2023-05-21T15:22:02.766Z,21.23
2023-05-21T15:24:30.841Z,21.73
2023-05-21T15:26:58.943Z,21.10
2023-05-21T15:29:26.937Z,21.27
2023-05-21T15:31:54.993Z,21.83
2023-05-21T15:34:23.021Z,20.88
2023-05-21T15:36:52.391Z,20.90
2023-05-21T15:39:20.365Z,21.17
2023-05-21T15:41:48.399Z,20.20
2023-05-21T15:44:16.471Z,22.50
2023-05-21T15:46:44.476Z,21.55
2023-05-21T15:49:12.532Z,20.17
2023-05-21T15:51:40.519Z,20.40
2023-05-21T15:54:09.866Z,21.50
2023-05-21T15:56:37.859Z,21.20
2023-05-21T15:59:05.946Z,20.80
2023-05-21T16:01:34.403Z,21.05
2023-05-21T16:04:02.974Z,21.00
2023-05-21T16:06:31.578Z,21.08
2023-05-21T16:09:00.404Z,21.08
2023-05-21T16:11:30.361Z,21.13
2023-05-21T16:13:58.386Z,20.85
2023-05-21T16:16:26.519Z,22.13
2023-05-21T16:18:55.081Z,21.73
2023-05-21T16:21:23.117Z,20.75
2023-05-21T16:23:51.308Z,20.30
2023-05-21T16:26:19.500Z,21.02
2023-05-21T16:28:48.856Z,21.00
2023-05-21T16:31:16.898Z,22.73
2023-05-21T16:33:44.938Z,20.55
2023-05-21T16:36:13.122Z,19.80
2023-05-21T16:38:41.139Z,19.25
2023-05-21T16:41:09.198Z,20.35
2023-05-21T16:43:37.276Z,19.35
2023-05-21T16:46:06.842Z,20.45
2023-05-21T16:48:37.356Z,18.58
2023-05-21T16:51:06.139Z,19.58
2023-05-21T16:53:34.225Z,20.05
2023-05-21T16:56:02.239Z,19.15
2023-05-21T16:58:30.235Z,19.67
2023-05-21T17:00:58.356Z,19.50
2023-05-21T17:03:28.824Z,20.13
2023-05-21T17:05:56.882Z,20.67
2023-05-21T17:08:24.866Z,20.35
2023-05-21T17:10:52.876Z,19.98
2023-05-21T17:13:23.036Z,22.40
2023-05-21T17:15:52.176Z,19.77
2023-05-21T17:18:20.273Z,19.30
2023-05-21T17:20:49.688Z,19.45
2023-05-21T17:23:17.733Z,18.85
2023-05-21T17:25:45.798Z,39.13
2023-05-21T17:28:13.828Z,19.73
2023-05-21T17:30:41.808Z,21.13
2023-05-21T17:33:10.572Z,20.02
2023-05-21T17:35:39.186Z,19.30
2023-05-21T17:38:08.864Z,20.15
2023-05-21T17:40:36.995Z,18.85
2023-05-21T17:43:07.208Z,20.10
2023-05-21T17:45:35.651Z,20.45
2023-05-21T17:48:04.000Z,18.50
2023-05-21T17:50:32.067Z,18.80
2023-05-21T17:53:00.860Z,18.83
2023-05-21T17:55:30.757Z,19.33
2023-05-21T17:57:58.790Z,18.52
2023-05-21T18:00:26.824Z,18.42
2023-05-21T18:02:54.932Z,18.85
2023-05-21T18:05:23.101Z,17.45
2023-05-21T18:07:51.175Z,28.10
2023-05-21T18:10:19.393Z,19.42
2023-05-21T18:12:48.909Z,18.23
2023-05-21T18:15:17.205Z,18.02
2023-05-21T18:17:45.521Z,17.83
2023-05-21T18:20:14.762Z,17.67
2023-05-21T18:22:42.883Z,17.17
2023-05-21T18:25:11.405Z,16.80
2023-05-21T18:27:39.413Z,18.50
2023-05-21T18:30:10.010Z,17.58
2023-05-21T18:32:39.402Z,18.25
2023-05-21T18:35:08.283Z,19.27
2023-05-21T18:37:37.302Z,17.63
2023-05-21T18:40:07.391Z,17.77
2023-05-21T18:42:35.966Z,18.45
2023-05-21T18:45:10.169Z,19.05
2023-05-21T18:47:40.232Z,16.92
2023-05-21T18:50:09.885Z,16.70
2023-05-21T18:52:37.880Z,15.35
2023-05-21T18:55:06.878Z,16.52
2023-05-21T18:57:35.581Z,18.58
2023-05-21T19:00:03.598Z,17.17
2023-05-21T19:02:33.154Z,16.77
2023-05-21T19:05:01.875Z,15.70
2023-05-21T19:07:30.052Z,16.20
2023-05-21T19:10:00.181Z,16.48
2023-05-21T19:12:31.432Z,16.08
2023-05-21T19:14:59.528Z,16.42
2023-05-21T19:17:27.863Z,16.15
2023-05-21T19:19:57.502Z,14.10
2023-05-21T19:22:26.086Z,14.75
2023-05-21T19:24:54.398Z,16.05
2023-05-21T19:27:22.814Z,15.55
2023-05-21T19:29:51.721Z,16.67
2023-05-21T19:32:20.761Z,17.20
2023-05-21T19:34:48.889Z,17.52
2023-05-21T19:37:18.287Z,16.13
2023-05-21T19:39:49.668Z,15.27
2023-05-21T19:42:18.641Z,13.55
2023-05-21T19:44:46.825Z,14.18
2023-05-21T19:47:15.050Z,11.02
2023-05-21T19:49:43.160Z,10.65
2023-05-21T19:52:12.127Z,13.35
2023-05-21T19:54:41.585Z,11.82
2023-05-21T19:57:12.345Z,10.57
2023-05-21T19:59:40.940Z,9.55
2023-05-21T20:02:15.225Z,7.60
2023-05-21T20:04:43.242Z,6.55
2023-05-21T20:07:11.321Z,7.97
2023-05-21T20:09:41.333Z,5.65
2023-05-21T20:12:10.032Z,5.70
2023-05-21T20:14:38.104Z,4.55
2023-05-21T20:17:07.235Z,7.22
2023-05-21T20:19:36.020Z,6.20
2023-05-21T20:22:04.201Z,8.70
2023-05-21T20:24:32.253Z,5.50
2023-05-21T20:27:02.233Z,5.68
2023-05-21T20:29:30.447Z,5.45
2023-05-21T20:31:58.477Z,5.68
2023-05-21T20:34:27.332Z,10.27
2023-05-21T20:36:58.029Z,6.38
2023-05-21T20:39:27.329Z,3.53
2023-05-21T20:41:56.112Z,3.95
2023-05-21T20:44:27.546Z,4.85
2023-05-21T20:46:55.787Z,10.38
2023-05-21T20:49:24.845Z,12.10
2023-05-21T20:51:53.182Z,5.30
2023-05-21T20:54:22.233Z,4.18
2023-05-21T20:56:50.941Z,3.25
2023-05-21T20:59:18.986Z,5.07
2023-05-21T21:01:48.486Z,2.65
2023-05-21T21:04:17.815Z,4.40
2023-05-21T21:06:47.020Z,3.65
2023-05-21T21:09:15.039Z,2.90
2023-05-21T21:11:43.049Z,4.35
2023-05-21T21:14:11.152Z,3.25
2023-05-21T21:16:39.192Z,3.13
2023-05-21T21:19:08.603Z,3.25
2023-05-21T21:21:36.785Z,2.20
2023-05-21T21:24:05.223Z,5.85
2023-05-21T21:26:33.185Z,4.63
2023-05-21T21:29:01.268Z,2.13
2023-05-21T21:31:31.355Z,2.47
2023-05-21T21:33:59.470Z,2.38
2023-05-21T21:36:29.521Z,3.75
2023-05-21T21:38:57.528Z,6.65
2023-05-21T21:41:25.912Z,3.72
2023-05-21T21:43:53.902Z,4.35
2023-05-21T21:46:22.094Z,3.85
2023-05-21T21:48:50.229Z,3.15
2023-05-21T21:51:18.324Z,2.38
2023-05-21T21:53:47.763Z,5.60
2023-05-21T21:56:16.357Z,3.50
2023-05-21T21:58:44.360Z,5.50
2023-05-21T22:01:12.392Z,2.78
2023-05-21T22:03:41.163Z,3.35
2023-05-21T22:06:09.360Z,2.03
2023-05-21T22:08:37.344Z,2.70
2023-05-21T22:11:07.119Z,1.98
2023-05-21T22:13:35.409Z,1.90
2023-05-21T22:16:03.647Z,2.28
2023-05-21T22:18:40.813Z,2.10
2023-05-21T22:21:10.922Z,4.95
2023-05-21T22:23:39.481Z,5.57
2023-05-21T22:26:08.888Z,4.72
2023-05-21T22:28:36.969Z,3.08
2023-05-21T22:31:05.031Z,3.00
2023-05-21T22:33:33.097Z,2.63
2023-05-21T22:36:01.262Z,3.45
2023-05-21T22:38:29.287Z,2.97
2023-05-21T22:40:57.565Z,2.38
2023-05-21T22:43:27.160Z,1.95
2023-05-21T22:45:55.257Z,2.25
2023-05-21T22:48:23.243Z,1.55
2023-05-21T22:50:53.630Z,3.65
2023-05-21T22:53:21.818Z,3.10
2023-05-21T22:55:50.151Z,3.85
2023-05-21T22:58:18.718Z,2.42
2023-05-21T23:00:48.430Z,3.90
2023-05-21T23:03:16.904Z,2.08
2023-05-21T23:05:45.568Z,1.63
2023-05-21T23:08:14.197Z,2.15
2023-05-21T23:10:42.277Z,2.35
2023-05-21T23:13:10.271Z,3.25
2023-05-21T23:15:39.043Z,2.35
2023-05-21T23:18:08.948Z,2.00
2023-05-21T23:20:37.449Z,2.03
2023-05-21T23:23:05.959Z,3.65
2023-05-21T23:25:35.256Z,5.85
2023-05-21T23:28:03.271Z,4.43
2023-05-21T23:30:31.346Z,1.20
2023-05-21T23:32:59.473Z,4.55
2023-05-21T23:35:28.938Z,2.30
2023-05-21T23:37:57.101Z,4.95
2023-05-21T23:40:25.141Z,3.38
2023-05-21T23:42:53.209Z,3.30
2023-05-21T23:45:21.439Z,2.75
2023-05-21T23:47:49.591Z,1.70
2023-05-21T23:50:17.701Z,3.10
2023-05-21T23:52:47.107Z,4.82
2023-05-21T23:55:15.301Z,4.35
2023-05-21T23:57:43.298Z,8.43
